sensor_id;sensor_type;location;lat;lon;timestamp;temperature;humidity
59067;DHT22;44854;50.838;4.438;2023-04-24T04:01:29;9.50;99.90
59067;DHT22;44854;50.838;4.438;2023-04-24T04:03:55;9.60;99.90
59067;DHT22;44854;50.838;4.438;2023-04-24T04:06:21;9.60;99.90
59067;DHT22;44854;50.838;4.438;2023-04-24T04:08:47;9.60;99.90
59067;DHT22;44854;50.838;4.438;2023-04-24T04:11:13;9.70;99.90
59067;DHT22;44854;50.838;4.438;2023-04-24T04:13:38;9.70;99.90
59067;DHT22;44854;50.838;4.438;2023-04-24T04:16:04;9.80;99.90
59067;DHT22;44854;50.838;4.438;2023-04-24T04:18:30;9.80;99.90
59067;DHT22;44854;50.838;4.438;2023-04-24T04:20:55;9.90;99.90
59067;DHT22;44854;50.838;4.438;2023-04-24T04:23:22;9.90;99.90
59067;DHT22;44854;50.838;4.438;2023-04-24T04:25:47;9.90;99.90
59067;DHT22;44854;50.838;4.438;2023-04-24T04:28:13;9.80;99.90
59067;DHT22;44854;50.838;4.438;2023-04-24T04:30:39;9.80;99.90
59067;DHT22;44854;50.838;4.438;2023-04-24T04:33:05;9.80;99.90
59067;DHT22;44854;50.838;4.438;2023-04-24T04:35:30;9.80;99.90
59067;DHT22;44854;50.838;4.438;2023-04-24T04:37:56;9.80;99.90
59067;DHT22;44854;50.838;4.438;2023-04-24T04:40:24;9.70;99.90
59067;DHT22;44854;50.838;4.438;2023-04-24T04:42:50;9.70;99.90
59067;DHT22;44854;50.838;4.438;2023-04-24T04:45:17;9.70;99.90
59067;DHT22;44854;50.838;4.438;2023-04-24T04:47:43;9.70;99.90
59067;DHT22;44854;50.838;4.438;2023-04-24T04:50:09;9.70;99.90
59067;DHT22;44854;50.838;4.438;2023-04-24T04:52:35;9.70;99.90
59067;DHT22;44854;50.838;4.438;2023-04-24T04:55:01;9.80;99.90
59067;DHT22;44854;50.838;4.438;2023-04-24T04:57:27;9.70;99.90
59067;DHT22;44854;50.838;4.438;2023-04-24T04:59:52;9.70;99.90
59067;DHT22;44854;50.838;4.438;2023-04-24T05:02:18;9.60;99.90
59067;DHT22;44854;50.838;4.438;2023-04-24T05:04:44;9.70;99.90
59067;DHT22;44854;50.838;4.438;2023-04-24T05:07:10;9.70;99.90
59067;DHT22;44854;50.838;4.438;2023-04-24T05:09:36;9.70;99.90
59067;DHT22;44854;50.838;4.438;2023-04-24T05:12:02;9.70;99.90
59067;DHT22;44854;50.838;4.438;2023-04-24T05:14:28;9.70;99.90
59067;DHT22;44854;50.838;4.438;2023-04-24T05:16:53;9.60;99.90
59067;DHT22;44854;50.838;4.438;2023-04-24T05:19:19;9.60;99.90
59067;DHT22;44854;50.838;4.438;2023-04-24T05:21:44;9.50;99.90
59067;DHT22;44854;50.838;4.438;2023-04-24T05:24:10;9.50;99.90
59067;DHT22;44854;50.838;4.438;2023-04-24T05:26:36;9.60;99.90
59067;DHT22;44854;50.838;4.438;2023-04-24T05:29:02;9.70;99.90
59067;DHT22;44854;50.838;4.438;2023-04-24T05:31:27;9.60;99.90
59067;DHT22;44854;50.838;4.438;2023-04-24T05:33:53;9.60;99.90
59067;DHT22;44854;50.838;4.438;2023-04-24T05:36:18;9.60;99.90
59067;DHT22;44854;50.838;4.438;2023-04-24T05:38:44;9.60;99.90
59067;DHT22;44854;50.838;4.438;2023-04-24T05:41:10;9.60;99.90
59067;DHT22;44854;50.838;4.438;2023-04-24T05:43:36;9.60;99.90
59067;DHT22;44854;50.838;4.438;2023-04-24T05:46:01;9.60;99.90
59067;DHT22;44854;50.838;4.438;2023-04-24T05:48:27;9.60;99.90
59067;DHT22;44854;50.838;4.438;2023-04-24T05:50:52;9.60;99.90
59067;DHT22;44854;50.838;4.438;2023-04-24T05:53:30;9.60;99.90
59067;DHT22;44854;50.838;4.438;2023-04-24T05:55:56;9.60;99.90
59067;DHT22;44854;50.838;4.438;2023-04-24T05:58:28;9.80;99.90
59067;DHT22;44854;50.838;4.438;2023-04-24T06:00:53;9.70;99.90
59067;DHT22;44854;50.838;4.438;2023-04-24T06:03:20;9.70;99.90
59067;DHT22;44854;50.838;4.438;2023-04-24T06:05:46;9.60;99.90
59067;DHT22;44854;50.838;4.438;2023-04-24T06:08:13;9.70;99.90
59067;DHT22;44854;50.838;4.438;2023-04-24T06:10:38;9.70;99.90
59067;DHT22;44854;50.838;4.438;2023-04-24T06:13:04;9.60;99.90
59067;DHT22;44854;50.838;4.438;2023-04-24T06:15:30;9.50;99.90
59067;DHT22;44854;50.838;4.438;2023-04-24T06:17:56;9.60;99.90
59067;DHT22;44854;50.838;4.438;2023-04-24T06:20:22;9.60;99.90
59067;DHT22;44854;50.838;4.438;2023-04-24T06:22:47;9.60;99.90
59067;DHT22;44854;50.838;4.438;2023-04-24T06:25:13;9.80;99.90
59067;DHT22;44854;50.838;4.438;2023-04-24T06:27:38;9.60;99.90
59067;DHT22;44854;50.838;4.438;2023-04-24T06:30:04;9.60;99.90
59067;DHT22;44854;50.838;4.438;2023-04-24T06:32:30;9.60;99.90
59067;DHT22;44854;50.838;4.438;2023-04-24T06:34:56;9.60;99.90
59067;DHT22;44854;50.838;4.438;2023-04-24T06:37:21;9.50;99.90
59067;DHT22;44854;50.838;4.438;2023-04-24T06:39:47;9.50;99.90
59067;DHT22;44854;50.838;4.438;2023-04-24T06:42:13;9.50;99.90
59067;DHT22;44854;50.838;4.438;2023-04-24T06:44:38;9.50;99.90
59067;DHT22;44854;50.838;4.438;2023-04-24T06:47:06;9.60;99.90
59067;DHT22;44854;50.838;4.438;2023-04-24T06:49:34;9.70;99.90
59067;DHT22;44854;50.838;4.438;2023-04-24T06:51:59;9.70;99.90
59067;DHT22;44854;50.838;4.438;2023-04-24T06:54:25;9.70;99.90
59067;DHT22;44854;50.838;4.438;2023-04-24T06:56:51;9.90;99.90
59067;DHT22;44854;50.838;4.438;2023-04-24T06:59:17;9.90;99.90
59067;DHT22;44854;50.838;4.438;2023-04-24T07:01:43;9.90;99.90
59067;DHT22;44854;50.838;4.438;2023-04-24T07:04:08;9.90;99.90
59067;DHT22;44854;50.838;4.438;2023-04-24T07:06:34;9.90;99.90
59067;DHT22;44854;50.838;4.438;2023-04-24T07:09:01;10.10;99.90
59067;DHT22;44854;50.838;4.438;2023-04-24T07:11:27;10.00;99.90
59067;DHT22;44854;50.838;4.438;2023-04-24T07:13:54;10.00;99.90
59067;DHT22;44854;50.838;4.438;2023-04-24T07:16:20;9.90;99.90
59067;DHT22;44854;50.838;4.438;2023-04-24T07:18:45;9.90;99.90
59067;DHT22;44854;50.838;4.438;2023-04-24T07:21:11;9.80;99.90
59067;DHT22;44854;50.838;4.438;2023-04-24T07:23:37;9.70;99.90
59067;DHT22;44854;50.838;4.438;2023-04-24T07:26:02;9.80;99.90
59067;DHT22;44854;50.838;4.438;2023-04-24T07:28:28;9.90;99.90
59067;DHT22;44854;50.838;4.438;2023-04-24T07:30:56;10.10;99.90
59067;DHT22;44854;50.838;4.438;2023-04-24T07:33:22;10.10;99.90
59067;DHT22;44854;50.838;4.438;2023-04-24T07:35:48;10.20;99.90
59067;DHT22;44854;50.838;4.438;2023-04-24T07:38:13;10.20;99.90
59067;DHT22;44854;50.838;4.438;2023-04-24T07:40:39;10.20;99.90
59067;DHT22;44854;50.838;4.438;2023-04-24T07:43:04;10.20;99.90
59067;DHT22;44854;50.838;4.438;2023-04-24T07:45:30;10.30;99.90
59067;DHT22;44854;50.838;4.438;2023-04-24T07:47:56;10.30;99.90
59067;DHT22;44854;50.838;4.438;2023-04-24T07:50:22;10.20;99.90
59067;DHT22;44854;50.838;4.438;2023-04-24T07:52:47;10.20;99.90
59067;DHT22;44854;50.838;4.438;2023-04-24T07:55:13;10.10;99.90
59067;DHT22;44854;50.838;4.438;2023-04-24T07:57:39;10.10;99.90
59067;DHT22;44854;50.838;4.438;2023-04-24T08:00:04;10.00;99.90
59067;DHT22;44854;50.838;4.438;2023-04-24T08:02:31;10.10;99.90
59067;DHT22;44854;50.838;4.438;2023-04-24T08:04:56;10.20;99.90
59067;DHT22;44854;50.838;4.438;2023-04-24T08:07:22;10.20;99.90
59067;DHT22;44854;50.838;4.438;2023-04-24T08:09:48;10.40;99.90
59067;DHT22;44854;50.838;4.438;2023-04-24T08:12:14;10.50;99.90
59067;DHT22;44854;50.838;4.438;2023-04-24T08:14:39;10.60;99.90
59067;DHT22;44854;50.838;4.438;2023-04-24T08:17:05;10.70;99.90
59067;DHT22;44854;50.838;4.438;2023-04-24T08:19:31;10.50;99.90
59067;DHT22;44854;50.838;4.438;2023-04-24T08:21:56;10.40;99.90
59067;DHT22;44854;50.838;4.438;2023-04-24T08:24:22;10.40;99.90
59067;DHT22;44854;50.838;4.438;2023-04-24T08:26:48;10.50;99.90
59067;DHT22;44854;50.838;4.438;2023-04-24T08:29:17;10.40;99.90
59067;DHT22;44854;50.838;4.438;2023-04-24T08:31:43;10.50;99.90
59067;DHT22;44854;50.838;4.438;2023-04-24T08:34:09;10.50;99.90
59067;DHT22;44854;50.838;4.438;2023-04-24T08:36:34;10.60;99.90
59067;DHT22;44854;50.838;4.438;2023-04-24T08:39:00;10.70;99.90
59067;DHT22;44854;50.838;4.438;2023-04-24T08:41:26;10.80;99.90
59067;DHT22;44854;50.838;4.438;2023-04-24T08:43:52;10.70;99.90
59067;DHT22;44854;50.838;4.438;2023-04-24T08:46:18;10.70;99.90
59067;DHT22;44854;50.838;4.438;2023-04-24T08:48:44;10.70;99.90
59067;DHT22;44854;50.838;4.438;2023-04-24T08:51:10;10.70;99.90
59067;DHT22;44854;50.838;4.438;2023-04-24T08:53:36;10.70;99.90
59067;DHT22;44854;50.838;4.438;2023-04-24T08:56:02;10.80;99.90
59067;DHT22;44854;50.838;4.438;2023-04-24T08:58:28;11.10;99.90
59067;DHT22;44854;50.838;4.438;2023-04-24T09:00:56;11.20;99.90
59067;DHT22;44854;50.838;4.438;2023-04-24T09:03:22;11.40;99.90
59067;DHT22;44854;50.838;4.438;2023-04-24T09:05:48;11.30;99.90
59067;DHT22;44854;50.838;4.438;2023-04-24T09:08:19;11.40;99.90
59067;DHT22;44854;50.838;4.438;2023-04-24T09:10:45;11.30;99.90
59067;DHT22;44854;50.838;4.438;2023-04-24T09:13:10;11.40;99.90
59067;DHT22;44854;50.838;4.438;2023-04-24T09:15:40;11.50;99.90
59067;DHT22;44854;50.838;4.438;2023-04-24T09:18:06;11.70;99.90
59067;DHT22;44854;50.838;4.438;2023-04-24T09:20:32;11.80;99.90
59067;DHT22;44854;50.838;4.438;2023-04-24T09:22:57;11.70;99.90
59067;DHT22;44854;50.838;4.438;2023-04-24T09:25:32;11.70;99.90
59067;DHT22;44854;50.838;4.438;2023-04-24T09:28:02;11.80;99.90
59067;DHT22;44854;50.838;4.438;2023-04-24T09:30:28;11.90;99.90
59067;DHT22;44854;50.838;4.438;2023-04-24T09:33:14;11.90;99.90
59067;DHT22;44854;50.838;4.438;2023-04-24T09:35:40;11.90;99.90
59067;DHT22;44854;50.838;4.438;2023-04-24T09:38:06;11.90;99.90
59067;DHT22;44854;50.838;4.438;2023-04-24T09:40:32;11.90;99.90
59067;DHT22;44854;50.838;4.438;2023-04-24T09:42:59;11.90;99.90
59067;DHT22;44854;50.838;4.438;2023-04-24T09:45:28;11.90;99.90
59067;DHT22;44854;50.838;4.438;2023-04-24T09:47:54;12.00;99.90
59067;DHT22;44854;50.838;4.438;2023-04-24T09:50:20;12.00;99.90
59067;DHT22;44854;50.838;4.438;2023-04-24T09:52:47;11.90;99.90
59067;DHT22;44854;50.838;4.438;2023-04-24T09:55:20;11.90;99.90
59067;DHT22;44854;50.838;4.438;2023-04-24T10:00:17;12.10;99.90
59067;DHT22;44854;50.838;4.438;2023-04-24T10:02:43;12.00;99.90
59067;DHT22;44854;50.838;4.438;2023-04-24T10:05:10;11.80;99.90
59067;DHT22;44854;50.838;4.438;2023-04-24T10:07:37;11.80;99.90
59067;DHT22;44854;50.838;4.438;2023-04-24T10:10:03;11.80;99.90
59067;DHT22;44854;50.838;4.438;2023-04-24T10:12:28;11.80;99.90
59067;DHT22;44854;50.838;4.438;2023-04-24T10:14:55;11.90;99.90
59067;DHT22;44854;50.838;4.438;2023-04-24T10:17:21;11.90;99.90
59067;DHT22;44854;50.838;4.438;2023-04-24T10:19:47;11.90;99.90
59067;DHT22;44854;50.838;4.438;2023-04-24T10:22:14;12.00;99.90
59067;DHT22;44854;50.838;4.438;2023-04-24T10:24:40;12.10;99.90
59067;DHT22;44854;50.838;4.438;2023-04-24T10:27:06;12.10;99.90
59067;DHT22;44854;50.838;4.438;2023-04-24T10:29:33;11.90;99.90
59067;DHT22;44854;50.838;4.438;2023-04-24T10:32:00;11.80;99.90
59067;DHT22;44854;50.838;4.438;2023-04-24T10:34:26;11.80;99.90
59067;DHT22;44854;50.838;4.438;2023-04-24T10:36:51;11.80;99.90
59067;DHT22;44854;50.838;4.438;2023-04-24T10:39:18;11.70;99.90
59067;DHT22;44854;50.838;4.438;2023-04-24T10:41:44;11.80;99.90
59067;DHT22;44854;50.838;4.438;2023-04-24T10:44:12;11.70;99.90
59067;DHT22;44854;50.838;4.438;2023-04-24T10:46:39;11.80;99.90
59067;DHT22;44854;50.838;4.438;2023-04-24T10:49:05;11.90;99.90
59067;DHT22;44854;50.838;4.438;2023-04-24T10:51:47;12.00;99.90
59067;DHT22;44854;50.838;4.438;2023-04-24T10:57:25;12.40;99.90
59067;DHT22;44854;50.838;4.438;2023-04-24T10:59:39;12.60;99.90
59067;DHT22;44854;50.838;4.438;2023-04-24T11:02:07;12.60;99.90
59067;DHT22;44854;50.838;4.438;2023-04-24T11:04:33;12.60;99.90
59067;DHT22;44854;50.838;4.438;2023-04-24T11:07:00;12.40;99.90
59067;DHT22;44854;50.838;4.438;2023-04-24T11:09:35;12.30;99.90
59067;DHT22;44854;50.838;4.438;2023-04-24T11:12:10;12.20;99.90
59067;DHT22;44854;50.838;4.438;2023-04-24T11:17:29;12.20;99.90
59067;DHT22;44854;50.838;4.438;2023-04-24T11:20:05;12.20;99.90
59067;DHT22;44854;50.838;4.438;2023-04-24T11:22:38;12.20;99.90
59067;DHT22;44854;50.838;4.438;2023-04-24T11:25:05;12.30;99.90
59067;DHT22;44854;50.838;4.438;2023-04-24T11:27:42;12.20;99.90
59067;DHT22;44854;50.838;4.438;2023-04-24T11:30:08;12.10;99.90
59067;DHT22;44854;50.838;4.438;2023-04-24T11:35:08;12.30;99.90
59067;DHT22;44854;50.838;4.438;2023-04-24T11:37:34;12.50;99.90
59067;DHT22;44854;50.838;4.438;2023-04-24T11:40:00;12.70;99.90
59067;DHT22;44854;50.838;4.438;2023-04-24T11:42:26;12.70;99.90
59067;DHT22;44854;50.838;4.438;2023-04-24T11:44:52;12.70;99.90
59067;DHT22;44854;50.838;4.438;2023-04-24T11:47:18;12.70;99.90
59067;DHT22;44854;50.838;4.438;2023-04-24T11:49:44;12.70;99.90
59067;DHT22;44854;50.838;4.438;2023-04-24T11:52:09;12.70;99.90
59067;DHT22;44854;50.838;4.438;2023-04-24T11:54:36;12.70;99.90
59067;DHT22;44854;50.838;4.438;2023-04-24T11:57:04;12.70;99.90
59067;DHT22;44854;50.838;4.438;2023-04-24T11:59:35;12.80;99.90
59067;DHT22;44854;50.838;4.438;2023-04-24T12:02:00;12.80;99.90
59067;DHT22;44854;50.838;4.438;2023-04-24T12:04:26;12.90;99.90
59067;DHT22;44854;50.838;4.438;2023-04-24T12:07:01;13.20;99.90
59067;DHT22;44854;50.838;4.438;2023-04-24T12:09:27;13.10;99.90
59067;DHT22;44854;50.838;4.438;2023-04-24T12:11:53;13.10;99.90
59067;DHT22;44854;50.838;4.438;2023-04-24T12:14:19;13.10;99.90
59067;DHT22;44854;50.838;4.438;2023-04-24T12:16:47;13.00;99.90
59067;DHT22;44854;50.838;4.438;2023-04-24T12:19:17;13.00;99.90
59067;DHT22;44854;50.838;4.438;2023-04-24T12:21:43;13.10;99.90
59067;DHT22;44854;50.838;4.438;2023-04-24T12:24:08;13.00;99.90
59067;DHT22;44854;50.838;4.438;2023-04-24T12:26:34;13.00;99.90
59067;DHT22;44854;50.838;4.438;2023-04-24T12:29:03;13.20;99.90
59067;DHT22;44854;50.838;4.438;2023-04-24T12:31:28;13.60;99.90
59067;DHT22;44854;50.838;4.438;2023-04-24T12:33:55;13.80;99.90
59067;DHT22;44854;50.838;4.438;2023-04-24T12:36:21;14.00;99.90
59067;DHT22;44854;50.838;4.438;2023-04-24T12:38:47;14.00;99.90
59067;DHT22;44854;50.838;4.438;2023-04-24T12:41:17;14.00;99.90
59067;DHT22;44854;50.838;4.438;2023-04-24T12:43:51;13.70;99.90
59067;DHT22;44854;50.838;4.438;2023-04-24T12:46:17;13.50;99.90
59067;DHT22;44854;50.838;4.438;2023-04-24T12:48:43;13.50;99.90
59067;DHT22;44854;50.838;4.438;2023-04-24T12:51:08;13.60;99.90
59067;DHT22;44854;50.838;4.438;2023-04-24T12:53:34;13.70;99.90
59067;DHT22;44854;50.838;4.438;2023-04-24T12:56:00;13.90;99.90
59067;DHT22;44854;50.838;4.438;2023-04-24T12:58:25;13.70;99.90
59067;DHT22;44854;50.838;4.438;2023-04-24T13:00:51;13.60;99.90
59067;DHT22;44854;50.838;4.438;2023-04-24T13:03:16;13.40;99.90
59067;DHT22;44854;50.838;4.438;2023-04-24T13:05:42;13.50;99.90
59067;DHT22;44854;50.838;4.438;2023-04-24T13:08:08;13.80;99.90
59067;DHT22;44854;50.838;4.438;2023-04-24T13:10:34;13.80;99.90
59067;DHT22;44854;50.838;4.438;2023-04-24T13:12:59;14.10;99.90
59067;DHT22;44854;50.838;4.438;2023-04-24T13:15:25;14.30;99.90
59067;DHT22;44854;50.838;4.438;2023-04-24T13:17:50;14.10;99.90
59067;DHT22;44854;50.838;4.438;2023-04-24T13:20:16;14.30;99.90
59067;DHT22;44854;50.838;4.438;2023-04-24T13:22:42;14.60;99.90
59067;DHT22;44854;50.838;4.438;2023-04-24T13:25:09;14.70;99.90
59067;DHT22;44854;50.838;4.438;2023-04-24T13:27:35;14.90;99.90
59067;DHT22;44854;50.838;4.438;2023-04-24T13:30:01;14.90;99.90
59067;DHT22;44854;50.838;4.438;2023-04-24T13:32:26;14.60;99.90
59067;DHT22;44854;50.838;4.438;2023-04-24T13:34:53;14.20;99.90
59067;DHT22;44854;50.838;4.438;2023-04-24T13:37:19;14.00;99.90
59067;DHT22;44854;50.838;4.438;2023-04-24T13:39:45;14.00;99.90
59067;DHT22;44854;50.838;4.438;2023-04-24T13:42:10;13.80;99.90
59067;DHT22;44854;50.838;4.438;2023-04-24T13:44:36;14.00;99.90
59067;DHT22;44854;50.838;4.438;2023-04-24T13:47:01;14.10;99.90
59067;DHT22;44854;50.838;4.438;2023-04-24T13:49:28;14.30;99.90
59067;DHT22;44854;50.838;4.438;2023-04-24T13:51:56;14.30;99.90
59067;DHT22;44854;50.838;4.438;2023-04-24T13:54:22;14.30;99.90
59067;DHT22;44854;50.838;4.438;2023-04-24T13:56:50;14.00;99.90
59067;DHT22;44854;50.838;4.438;2023-04-24T13:59:17;13.80;99.90
59067;DHT22;44854;50.838;4.438;2023-04-24T14:01:42;13.70;99.90
59067;DHT22;44854;50.838;4.438;2023-04-24T14:04:10;13.70;99.90
59067;DHT22;44854;50.838;4.438;2023-04-24T14:06:35;13.70;99.90
59067;DHT22;44854;50.838;4.438;2023-04-24T14:09:01;13.80;99.90
59067;DHT22;44854;50.838;4.438;2023-04-24T14:11:26;13.90;99.90
59067;DHT22;44854;50.838;4.438;2023-04-24T14:13:52;13.90;99.90
59067;DHT22;44854;50.838;4.438;2023-04-24T14:16:18;14.00;99.90
59067;DHT22;44854;50.838;4.438;2023-04-24T14:18:44;13.90;99.90
59067;DHT22;44854;50.838;4.438;2023-04-24T14:21:10;13.90;99.90
59067;DHT22;44854;50.838;4.438;2023-04-24T14:23:35;13.80;99.90
59067;DHT22;44854;50.838;4.438;2023-04-24T14:26:01;13.70;99.90
59067;DHT22;44854;50.838;4.438;2023-04-24T14:28:26;13.70;99.90
59067;DHT22;44854;50.838;4.438;2023-04-24T14:30:52;13.70;99.90
59067;DHT22;44854;50.838;4.438;2023-04-24T14:33:18;13.70;99.90
59067;DHT22;44854;50.838;4.438;2023-04-24T14:35:44;13.60;99.90
59067;DHT22;44854;50.838;4.438;2023-04-24T14:38:09;13.60;99.90
59067;DHT22;44854;50.838;4.438;2023-04-24T14:40:35;13.60;99.90
59067;DHT22;44854;50.838;4.438;2023-04-24T14:43:01;13.60;99.90
59067;DHT22;44854;50.838;4.438;2023-04-24T14:45:26;13.60;99.90
59067;DHT22;44854;50.838;4.438;2023-04-24T14:47:52;13.30;99.90
59067;DHT22;44854;50.838;4.438;2023-04-24T14:50:18;13.20;99.90
59067;DHT22;44854;50.838;4.438;2023-04-24T14:52:43;13.20;99.90
59067;DHT22;44854;50.838;4.438;2023-04-24T14:55:09;13.20;99.90
59067;DHT22;44854;50.838;4.438;2023-04-24T14:57:35;13.10;99.90
59067;DHT22;44854;50.838;4.438;2023-04-24T15:00:02;13.10;99.90
59067;DHT22;44854;50.838;4.438;2023-04-24T15:02:29;13.00;99.90
59067;DHT22;44854;50.838;4.438;2023-04-24T15:04:54;13.00;99.90
59067;DHT22;44854;50.838;4.438;2023-04-24T15:07:20;13.00;99.90
59067;DHT22;44854;50.838;4.438;2023-04-24T15:09:45;13.10;99.90
59067;DHT22;44854;50.838;4.438;2023-04-24T15:12:12;13.10;99.90
59067;DHT22;44854;50.838;4.438;2023-04-24T15:14:38;13.30;99.90
59067;DHT22;44854;50.838;4.438;2023-04-24T15:17:03;13.40;99.90
59067;DHT22;44854;50.838;4.438;2023-04-24T15:19:29;13.50;99.90
59067;DHT22;44854;50.838;4.438;2023-04-24T15:21:55;13.40;99.90
59067;DHT22;44854;50.838;4.438;2023-04-24T15:24:20;13.20;99.90
59067;DHT22;44854;50.838;4.438;2023-04-24T15:26:47;13.30;99.90
59067;DHT22;44854;50.838;4.438;2023-04-24T15:29:12;13.30;99.90
59067;DHT22;44854;50.838;4.438;2023-04-24T15:31:38;13.30;99.90
59067;DHT22;44854;50.838;4.438;2023-04-24T15:34:05;13.30;99.90
59067;DHT22;44854;50.838;4.438;2023-04-24T15:36:31;13.20;99.90
59067;DHT22;44854;50.838;4.438;2023-04-24T15:38:57;13.30;99.90
59067;DHT22;44854;50.838;4.438;2023-04-24T15:41:23;13.20;99.90
59067;DHT22;44854;50.838;4.438;2023-04-24T15:43:48;13.20;99.90
59067;DHT22;44854;50.838;4.438;2023-04-24T15:46:14;13.10;99.90
59067;DHT22;44854;50.838;4.438;2023-04-24T15:48:41;12.90;99.90
59067;DHT22;44854;50.838;4.438;2023-04-24T15:51:07;12.90;99.90
59067;DHT22;44854;50.838;4.438;2023-04-24T15:53:33;12.80;99.90
59067;DHT22;44854;50.838;4.438;2023-04-24T15:55:59;12.70;99.90
59067;DHT22;44854;50.838;4.438;2023-04-24T15:58:24;12.70;99.90
59067;DHT22;44854;50.838;4.438;2023-04-24T16:00:50;12.60;99.90
59067;DHT22;44854;50.838;4.438;2023-04-24T16:03:18;12.70;99.90
59067;DHT22;44854;50.838;4.438;2023-04-24T16:05:44;12.70;99.90
59067;DHT22;44854;50.838;4.438;2023-04-24T16:08:09;12.70;99.90
59067;DHT22;44854;50.838;4.438;2023-04-24T16:10:35;12.70;99.90
59067;DHT22;44854;50.838;4.438;2023-04-24T16:13:01;12.80;99.90
59067;DHT22;44854;50.838;4.438;2023-04-24T16:15:29;12.80;99.90
59067;DHT22;44854;50.838;4.438;2023-04-24T16:17:54;12.80;99.90
59067;DHT22;44854;50.838;4.438;2023-04-24T16:20:20;12.80;99.90
59067;DHT22;44854;50.838;4.438;2023-04-24T16:22:46;12.70;99.90
59067;DHT22;44854;50.838;4.438;2023-04-24T16:25:11;12.80;99.90
59067;DHT22;44854;50.838;4.438;2023-04-24T16:27:37;12.80;99.90
59067;DHT22;44854;50.838;4.438;2023-04-24T16:30:03;12.90;99.90
59067;DHT22;44854;50.838;4.438;2023-04-24T16:32:29;13.00;99.90
59067;DHT22;44854;50.838;4.438;2023-04-24T16:34:55;12.90;99.90
59067;DHT22;44854;50.838;4.438;2023-04-24T16:37:20;12.80;99.90
59067;DHT22;44854;50.838;4.438;2023-04-24T16:39:46;12.80;99.90
59067;DHT22;44854;50.838;4.438;2023-04-24T16:42:12;12.70;99.90
59067;DHT22;44854;50.838;4.438;2023-04-24T16:44:38;12.70;99.90
59067;DHT22;44854;50.838;4.438;2023-04-24T16:47:04;12.70;99.90
59067;DHT22;44854;50.838;4.438;2023-04-24T16:49:31;12.80;99.90
59067;DHT22;44854;50.838;4.438;2023-04-24T16:51:57;12.70;99.90
59067;DHT22;44854;50.838;4.438;2023-04-24T16:54:23;12.80;99.90
59067;DHT22;44854;50.838;4.438;2023-04-24T16:56:49;13.00;99.90
59067;DHT22;44854;50.838;4.438;2023-04-24T16:59:14;13.10;99.90
59067;DHT22;44854;50.838;4.438;2023-04-24T17:01:40;13.10;99.90
59067;DHT22;44854;50.838;4.438;2023-04-24T17:04:05;13.00;99.90
59067;DHT22;44854;50.838;4.438;2023-04-24T17:06:31;13.00;99.90
59067;DHT22;44854;50.838;4.438;2023-04-24T17:08:57;12.90;99.90
59067;DHT22;44854;50.838;4.438;2023-04-24T17:11:25;13.00;99.90
59067;DHT22;44854;50.838;4.438;2023-04-24T17:13:50;12.90;99.90
59067;DHT22;44854;50.838;4.438;2023-04-24T17:16:16;12.70;99.90
59067;DHT22;44854;50.838;4.438;2023-04-24T17:18:41;12.80;99.90
59067;DHT22;44854;50.838;4.438;2023-04-24T17:21:07;12.90;99.90
59067;DHT22;44854;50.838;4.438;2023-04-24T17:23:32;13.00;99.90
59067;DHT22;44854;50.838;4.438;2023-04-24T17:25:58;12.90;99.90
59067;DHT22;44854;50.838;4.438;2023-04-24T17:28:25;12.80;99.90
59067;DHT22;44854;50.838;4.438;2023-04-24T17:30:51;12.70;99.90
59067;DHT22;44854;50.838;4.438;2023-04-24T17:33:18;12.70;99.90
59067;DHT22;44854;50.838;4.438;2023-04-24T17:35:44;12.60;99.90
59067;DHT22;44854;50.838;4.438;2023-04-24T17:38:10;12.50;99.90
59067;DHT22;44854;50.838;4.438;2023-04-24T17:40:36;12.40;99.90
59067;DHT22;44854;50.838;4.438;2023-04-24T17:43:02;12.30;99.90
59067;DHT22;44854;50.838;4.438;2023-04-24T17:45:28;12.30;99.90
59067;DHT22;44854;50.838;4.438;2023-04-24T17:47:53;12.30;99.90
59067;DHT22;44854;50.838;4.438;2023-04-24T17:50:20;12.20;99.90
59067;DHT22;44854;50.838;4.438;2023-04-24T17:52:46;12.10;99.90
59067;DHT22;44854;50.838;4.438;2023-04-24T17:55:12;12.10;99.90
59067;DHT22;44854;50.838;4.438;2023-04-24T17:57:37;12.20;99.90
59067;DHT22;44854;50.838;4.438;2023-04-24T18:00:04;12.30;99.90
59067;DHT22;44854;50.838;4.438;2023-04-24T18:02:30;12.30;99.90
59067;DHT22;44854;50.838;4.438;2023-04-24T18:04:55;12.40;99.90
59067;DHT22;44854;50.838;4.438;2023-04-24T18:07:24;12.40;99.90
59067;DHT22;44854;50.838;4.438;2023-04-24T18:09:49;12.10;99.90
59067;DHT22;44854;50.838;4.438;2023-04-24T18:12:15;11.90;99.90
59067;DHT22;44854;50.838;4.438;2023-04-24T18:14:40;11.90;99.90
59067;DHT22;44854;50.838;4.438;2023-04-24T18:17:06;11.90;99.90
59067;DHT22;44854;50.838;4.438;2023-04-24T18:19:32;11.90;99.90
59067;DHT22;44854;50.838;4.438;2023-04-24T18:21:57;11.90;99.90
59067;DHT22;44854;50.838;4.438;2023-04-24T18:24:23;11.90;99.90
59067;DHT22;44854;50.838;4.438;2023-04-24T18:26:49;11.90;99.90
59067;DHT22;44854;50.838;4.438;2023-04-24T18:29:15;11.90;99.90
59067;DHT22;44854;50.838;4.438;2023-04-24T18:31:40;11.90;99.90
59067;DHT22;44854;50.838;4.438;2023-04-24T18:34:06;11.90;99.90
59067;DHT22;44854;50.838;4.438;2023-04-24T18:36:31;11.90;99.90
59067;DHT22;44854;50.838;4.438;2023-04-24T18:38:57;11.80;99.90
59067;DHT22;44854;50.838;4.438;2023-04-24T18:41:23;11.70;99.90
59067;DHT22;44854;50.838;4.438;2023-04-24T18:43:48;11.50;99.90
59067;DHT22;44854;50.838;4.438;2023-04-24T18:46:16;11.60;99.90
59067;DHT22;44854;50.838;4.438;2023-04-24T18:48:42;11.50;99.90
59067;DHT22;44854;50.838;4.438;2023-04-24T18:51:07;11.50;99.90
59067;DHT22;44854;50.838;4.438;2023-04-24T18:53:34;11.50;99.90
59067;DHT22;44854;50.838;4.438;2023-04-24T18:55:59;11.30;99.90
59067;DHT22;44854;50.838;4.438;2023-04-24T18:58:25;11.20;99.90
59067;DHT22;44854;50.838;4.438;2023-04-24T19:00:51;11.20;99.90
59067;DHT22;44854;50.838;4.438;2023-04-24T19:03:16;11.10;99.90
59067;DHT22;44854;50.838;4.438;2023-04-24T19:05:42;11.00;99.90
59067;DHT22;44854;50.838;4.438;2023-04-24T19:08:07;11.10;99.90
59067;DHT22;44854;50.838;4.438;2023-04-24T19:10:33;11.30;99.90
59067;DHT22;44854;50.838;4.438;2023-04-24T19:12:59;11.30;99.90
59067;DHT22;44854;50.838;4.438;2023-04-24T19:15:26;11.20;99.90
59067;DHT22;44854;50.838;4.438;2023-04-24T19:17:54;11.30;99.90
59067;DHT22;44854;50.838;4.438;2023-04-24T19:20:20;11.30;99.90
59067;DHT22;44854;50.838;4.438;2023-04-24T19:22:45;11.40;99.90
59067;DHT22;44854;50.838;4.438;2023-04-24T19:25:11;11.40;99.90
59067;DHT22;44854;50.838;4.438;2023-04-24T19:27:37;11.50;99.90
59067;DHT22;44854;50.838;4.438;2023-04-24T19:30:02;11.50;99.90
59067;DHT22;44854;50.838;4.438;2023-04-24T19:32:28;11.30;99.90
59067;DHT22;44854;50.838;4.438;2023-04-24T19:34:53;11.20;99.90
59067;DHT22;44854;50.838;4.438;2023-04-24T19:37:19;11.20;99.90
59067;DHT22;44854;50.838;4.438;2023-04-24T19:39:45;11.30;99.90